Time;durP1;ratioP1;P1;durP2;ratioP2;P2;SDS_P1;SDS_P2;PMS_P1;PMS_P2;Temp;Humidity;BMP_temperature;BMP_pressure;BME280_temperature;BME280_humidity;BME280_pressure;Samples;Min_cycle;Max_cycle;Signal;HPM_P1;HPM_P2
2022/06/11 00:00:58;;;;;;;;;;;;;;;;;;4879869;29;8496;-86
2022/06/11 00:03:24;;;;;;;;;;;;;;;;;;4879842;29;8882;-84
2022/06/11 00:05:49;;;;;;;;;;;;;;;;;;4880082;29;7232;-85
2022/06/11 00:08:16;;;;;;;;;;;;;;;;;;4879857;29;7266;-85
2022/06/11 00:10:41;;;;;;;;;;;;;;;;;;4878907;29;9036;-86
2022/06/11 00:13:07;;;;;;;;;;;;;;;;;;4879492;29;8585;-85
2022/06/11 00:15:34;;;;;;;;;;;;;;;;;;4880309;29;8970;-85
2022/06/11 00:17:59;;;;;;;;;;;;;;;;;;4879684;29;7335;-85
2022/06/11 00:20:26;;;;;;;;;;;;;;;;;;4880106;29;8842;-85
2022/06/11 00:22:52;;;;;;;;;;;;;;;;;;4879814;29;7406;-84
2022/06/11 00:25:19;;;;;;;;;;;;;;;;;;4880373;29;7435;-85
2022/06/11 00:27:44;;;;;;;;;;;;;;;;;;4879884;29;8496;-85
2022/06/11 00:30:11;;;;;;;;;;;;;;;;;;4879599;29;8473;-84
2022/06/11 00:32:38;;;;;;;;;;;;;;;;;;4880251;29;7148;-85
2022/06/11 00:35:04;;;;;;;;;;;;;;;;;;4879871;29;8490;-84
2022/06/11 00:37:31;;;;;;;;;;;;;;;;;;4879996;29;8456;-85
2022/06/11 00:39:56;;;;;;;;;;;;;;;;;;4879693;29;7238;-85
2022/06/11 00:42:24;;;;;;;;;;;;;;;;;;4879142;29;8960;-85
2022/06/11 00:45:10;;;;;;;;;;;;;;;;;;4879638;29;8421;-85
2022/06/11 00:47:36;;;;;;;;;;;;;;;;;;4879483;29;8510;-85
2022/06/11 00:50:03;;;;;;;;;;;;;;;;;;4879936;29;8469;-84
2022/06/11 00:52:31;;;;;;;;;;;;;;;;;;4879720;29;8402;-85
2022/06/11 00:55:04;;;;;;;;;;;;;;;;;;4880376;29;8533;-84
2022/06/11 00:57:32;;;;;;;;;;;;;;;;;;4879913;29;7231;-84
2022/06/11 01:00:03;;;;;;;;;;;;;;;;;;4879734;29;7252;-85
2022/06/11 01:02:29;;;;;;;;;;;;;;;;;;4879432;29;7304;-85
2022/06/11 01:04:56;;;;;;;;;;;;;;;;;;4879532;29;7161;-86
2022/06/11 01:07:40;;;;;;;;;;;;;;;;;;4879485;29;8473;-85
2022/06/11 01:10:12;;;;;;;;;;;;;;;;;;4879718;29;7130;-84
2022/06/11 01:12:37;;;;;;;;;;;;;;;;;;4879899;29;8598;-84
2022/06/11 01:15:14;;;;;;;;;;;;;;;;;;4879917;29;8669;-85
2022/06/11 01:17:49;;;;;;;;;;;;;;;;;;4879192;29;8793;-85
2022/06/11 01:20:21;;;;;;;;;;;;;;;;;;4880182;29;7128;-85
2022/06/11 01:23:11;;;;;;;;;;;;;;;;;;4881710;29;8393;-85
2022/06/11 01:25:52;;;;;;;;;;;;;;;;;;4882901;29;8406;-84
2022/06/11 01:28:37;;;;;;;;;;;;;;;;;;4882871;29;7214;-85
2022/06/11 01:31:13;;;;;;;;;;;;;;;;;;4882754;29;8820;-85
2022/06/11 01:34:05;;;;;;;;;;;;;;;;;;4882400;29;7156;-85
2022/06/11 01:36:39;;;;;;;;;;;;;;;;;;4882099;29;7139;-85
2022/06/11 01:39:10;;;;;;;;;;;;;;;;;;4882528;29;8457;-85
2022/06/11 01:41:35;;;;;;;;;;;;;;;;;;4882191;29;8790;-85
2022/06/11 01:44:04;;;;;;;;;;;;;;;;;;4882711;29;7397;-85
2022/06/11 01:46:36;;;;;;;;;;;;;;;;;;4882352;29;7251;-85
2022/06/11 01:49:06;;;;;;;;;;;;;;;;;;4882084;29;7187;-85
2022/06/11 01:51:32;;;;;;;;;;;;;;;;;;4882293;29;7109;-84
2022/06/11 01:53:57;;;;;;;;;;;;;;;;;;4882407;29;8679;-85
2022/06/11 01:56:41;;;;;;;;;;;;;;;;;;4882651;29;8505;-85
2022/06/11 01:59:13;;;;;;;;;;;;;;;;;;4882435;29;7259;-85
2022/06/11 02:02:05;;;;;;;;;;;;;;;;;;4882204;29;8563;-85
2022/06/11 02:04:48;;;;;;;;;;;;;;;;;;4881711;29;8513;-84
2022/06/11 02:07:16;;;;;;;;;;;;;;;;;;4882621;29;7130;-85
2022/06/11 02:09:54;;;;;;;;;;;;;;;;;;4882478;29;7214;-84
2022/06/11 02:12:38;;;;;;;;;;;;;;;;;;4882145;29;8542;-85
2022/06/11 02:15:14;;;;;;;;;;;;;;;;;;4881942;29;8446;-85
2022/06/11 02:17:43;;;;;;;;;;;;;;;;;;4882119;29;7268;-85
2022/06/11 02:20:17;;;;;;;;;;;;;;;;;;4882068;29;7167;-86
2022/06/11 02:22:47;;;;;;;;;;;;;;;;;;4881890;29;8484;-85
2022/06/11 02:25:17;;;;;;;;;;;;;;;;;;4881838;29;8542;-85
2022/06/11 02:27:45;;;;;;;;;;;;;;;;;;4882020;29;7059;-85
2022/06/11 02:30:13;;;;;;;;;;;;;;;;;;4881592;29;8473;-85
2022/06/11 02:32:40;;;;;;;;;;;;;;;;;;4881221;29;8452;-85
2022/06/11 02:35:09;;;;;;;;;;;;;;;;;;4881131;29;7245;-85
2022/06/11 02:37:37;;;;;;;;;;;;;;;;;;4881368;29;8646;-84
2022/06/11 02:40:12;;;;;;;;;;;;;;;;;;4881448;29;8413;-85
2022/06/11 02:42:37;;;;;;;;;;;;;;;;;;4881508;29;8530;-84
2022/06/11 02:45:04;;;;;;;;;;;;;;;;;;4881580;29;7278;-85
2022/06/11 02:47:29;;;;;;;;;;;;;;;;;;4881250;29;7261;-85
2022/06/11 02:49:55;;;;;;;;;;;;;;;;;;4881338;29;8564;-84
2022/06/11 02:52:23;;;;;;;;;;;;;;;;;;4881187;29;8457;-84
2022/06/11 02:54:52;;;;;;;;;;;;;;;;;;4881516;29;8518;-84
2022/06/11 02:57:24;;;;;;;;;;;;;;;;;;4881798;29;7307;-85
2022/06/11 02:59:50;;;;;;;;;;;;;;;;;;4881137;29;7299;-84
2022/06/11 03:02:16;;;;;;;;;;;;;;;;;;4881486;29;8401;-84
2022/06/11 03:04:42;;;;;;;;;;;;;;;;;;4881317;29;8451;-84
2022/06/11 03:07:11;;;;;;;;;;;;;;;;;;4880968;29;7115;-85
2022/06/11 03:09:37;;;;;;;;;;;;;;;;;;4880702;29;7238;-84
2022/06/11 03:12:03;;;;;;;;;;;;;;;;;;4880584;29;8708;-85
2022/06/11 03:14:29;;;;;;;;;;;;;;;;;;4880961;29;8502;-85
2022/06/11 03:16:55;;;;;;;;;;;;;;;;;;4881195;29;8782;-85
2022/06/11 03:19:22;;;;;;;;;;;;;;;;;;4881060;29;8577;-85
2022/06/11 03:21:53;;;;;;;;;;;;;;;;;;4880932;29;8711;-85
2022/06/11 03:24:20;;;;;;;;;;;;;;;;;;4880821;29;7156;-84
2022/06/11 03:26:45;;;;;;;;;;;;;;;;;;4881023;29;7078;-85
2022/06/11 03:29:11;;;;;;;;;;;;;;;;;;4880527;29;8470;-84
2022/06/11 03:31:37;;;;;;;;;;;;;;;;;;4880964;29;8784;-84
2022/06/11 03:34:03;;;;;;;;;;;;;;;;;;4880612;29;8649;-85
2022/06/11 03:36:30;;;;;;;;;;;;;;;;;;4880905;29;7407;-84
2022/06/11 03:38:55;;;;;;;;;;;;;;;;;;4880372;29;7137;-84
2022/06/11 03:41:21;;;;;;;;;;;;;;;;;;4880782;29;8480;-84
2022/06/11 03:43:49;;;;;;;;;;;;;;;;;;4880415;29;8490;-85
2022/06/11 03:46:15;;;;;;;;;;;;;;;;;;4880099;29;8386;-85
2022/06/11 03:48:40;;;;;;;;;;;;;;;;;;4880433;29;8438;-84
2022/06/11 03:51:08;;;;;;;;;;;;;;;;;;4880841;29;8342;-85
2022/06/11 03:53:35;;;;;;;;;;;;;;;;;;4880291;29;8405;-85
2022/06/11 03:56:03;;;;;;;;;;;;;;;;;;4880472;29;8595;-85
2022/06/11 03:58:28;;;;;;;;;;;;;;;;;;4880381;29;8390;-85
2022/06/11 04:03:39;;;;;;;;;;;;;;;;;;4881747;29;6881;-84
2022/06/11 04:06:06;;;;;;;;;;;;;;;;;;4880151;29;8636;-84
2022/06/11 04:08:32;;;;;;;;;;;;;;;;;;4880567;29;7131;-84
2022/06/11 04:10:58;;;;;;;;;;;;;;;;;;4879852;29;8532;-85
2022/06/11 04:13:26;;;;;;;;;;;;;;;;;;4880289;29;7224;-85
2022/06/11 04:15:52;;;;;;;;;;;;;;;;;;4880095;29;6930;-85
2022/06/11 04:18:20;;;;;;;;;;;;;;;;;;4880092;29;7103;-84
2022/06/11 04:20:46;;;;;;;;;;;;;;;;;;4879799;29;8478;-85
2022/06/11 04:23:11;;;;;;;;;;;;;;;;;;4879885;29;8887;-84
2022/06/11 04:25:37;;;;;;;;;;;;;;;;;;4880210;29;7412;-85
2022/06/11 04:28:03;;;;;;;;;;;;;;;;;;4880345;29;8656;-84
2022/06/11 04:30:28;;;;;;;;;;;;;;;;;;4879828;29;7418;-85
2022/06/11 04:32:54;;;;;;;;;;;;;;;;;;4880007;29;8778;-85
2022/06/11 04:35:21;;;;;;;;;;;;;;;;;;4879859;29;8343;-85
2022/06/11 04:37:47;;;;;;;;;;;;;;;;;;4879533;29;7378;-84
2022/06/11 04:40:16;;;;;;;;;;;;;;;;;;4879449;29;7245;-85
2022/06/11 04:42:41;;;;;;;;;;;;;;;;;;4879193;29;7091;-85
2022/06/11 04:45:07;;;;;;;;;;;;;;;;;;4880047;29;8573;-85
2022/06/11 04:47:32;;;;;;;;;;;;;;;;;;4879647;29;8454;-83
2022/06/11 04:50:01;;;;;;;;;;;;;;;;;;4879644;29;8450;-84
2022/06/11 04:52:26;;;;;;;;;;;;;;;;;;4881231;29;8460;-84
2022/06/11 04:54:53;;;;;;;;;;;;;;;;;;4879953;29;7105;-85
2022/06/11 04:57:20;;;;;;;;;;;;;;;;;;4881630;29;8509;-85
2022/06/11 04:59:46;;;;;;;;;;;;;;;;;;4883689;29;8592;-84
2022/06/11 05:02:11;;;;;;;;;;;;;;;;;;4883308;29;8516;-85
2022/06/11 05:04:37;;;;;;;;;;;;;;;;;;4883696;29;8811;-84
2022/06/11 05:07:03;;;;;;;;;;;;;;;;;;4883375;29;8452;-84
2022/06/11 05:09:30;;;;;;;;;;;;;;;;;;4882865;29;7262;-85
2022/06/11 05:11:56;;;;;;;;;;;;;;;;;;4883157;29;7341;-85
2022/06/11 05:14:22;;;;;;;;;;;;;;;;;;4883052;29;8724;-84
2022/06/11 05:16:49;;;;;;;;;;;;;;;;;;4883074;29;8529;-84
2022/06/11 05:19:18;;;;;;;;;;;;;;;;;;4882893;29;8375;-84
2022/06/11 05:21:44;;;;;;;;;;;;;;;;;;4883047;29;8614;-84
2022/06/11 05:24:10;;;;;;;;;;;;;;;;;;4882391;29;7262;-85
2022/06/11 05:26:41;;;;;;;;;;;;;;;;;;4904821;29;8654;-85
2022/06/11 05:29:06;;;;;;;;;;;;;;;;;;4903532;29;8393;-81
2022/06/11 05:31:33;;;;;;;;;;;;;;;;;;4907212;29;7252;-85
2022/06/11 05:33:58;;;;;;;;;;;;;;;;;;4901092;29;8536;-81
2022/06/11 05:36:24;;;;;;;;;;;;;;;;;;4901630;29;8560;-82
2022/06/11 05:38:49;;;;;;;;;;;;;;;;;;4901430;29;8411;-84
2022/06/11 05:41:15;;;;;;;;;;;;;;;;;;4901337;29;8919;-85
2022/06/11 05:43:40;;;;;;;;;;;;;;;;;;4900780;29;7290;-85
2022/06/11 05:46:13;;;;;;;;;;;;;;;;;;4916724;29;8901;-85
2022/06/11 05:48:43;;;;;;;;;;;;;;;;;;4917017;29;8895;-82
2022/06/11 05:51:13;;;;;;;;;;;;;;;;;;4916769;29;7316;-86
2022/06/11 05:53:38;;;;;;;;;;;;;;;;;;4917196;29;7373;-86
2022/06/11 05:56:04;;;;;;;;;;;;;;;;;;4916703;29;7126;-85
2022/06/11 05:58:51;;;;;;;;;;;;;;;;;;4916750;29;8844;-85
2022/06/11 06:01:20;;;;;;;;;;;;;;;;;;4916204;29;8424;-85
2022/06/11 06:03:46;;;;;;;;;;;;;;;;;;4853044;29;11898;-85
2022/06/11 06:06:12;;;;;;;;;;;;;;;;;;4900814;29;8502;-85
2022/06/11 06:08:37;;;;;;;;;;;;;;;;;;4899933;29;8407;-84
2022/06/11 06:11:03;;;;;;;;;;;;;;;;;;4900866;29;8495;-84
2022/06/11 06:13:46;;;;;;;;;;;;;;;;;;4900566;29;7111;-86
2022/06/11 06:16:17;;;;;;;;;;;;;;;;;;4901380;29;8526;-84
2022/06/11 06:18:43;;;;;;;;;;;;;;;;;;4900609;29;8524;-85
2022/06/11 06:21:08;;;;;;;;;;;;;;;;;;4900630;29;7166;-85
2022/06/11 06:23:35;;;;;;;;;;;;;;;;;;4900893;29;7601;-84
2022/06/11 06:26:01;;;;;;;;;;;;;;;;;;4900205;29;7449;-84
2022/06/11 06:28:27;;;;;;;;;;;;;;;;;;4900645;29;7144;-85
2022/06/11 06:30:53;;;;;;;;;;;;;;;;;;4900220;29;8809;-85
2022/06/11 06:33:18;;;;;;;;;;;;;;;;;;4900039;29;7500;-84
2022/06/11 06:35:44;;;;;;;;;;;;;;;;;;4900348;29;8435;-85
2022/06/11 06:38:10;;;;;;;;;;;;;;;;;;4900064;29;7405;-85
2022/06/11 06:40:35;;;;;;;;;;;;;;;;;;4900437;29;7166;-85
2022/06/11 06:43:03;;;;;;;;;;;;;;;;;;4899961;29;8477;-85
2022/06/11 06:45:29;;;;;;;;;;;;;;;;;;4900036;29;8753;-84
2022/06/11 06:47:55;;;;;;;;;;;;;;;;;;4900162;29;7435;-83
2022/06/11 06:50:21;;;;;;;;;;;;;;;;;;4899990;29;8502;-83
2022/06/11 06:52:47;;;;;;;;;;;;;;;;;;4900243;29;8704;-84
2022/06/11 06:55:13;;;;;;;;;;;;;;;;;;4900101;29;8764;-84
2022/06/11 06:57:39;;;;;;;;;;;;;;;;;;4899548;29;8507;-84
2022/06/11 07:00:06;;;;;;;;;;;;;;;;;;4900006;29;7260;-84
2022/06/11 07:02:32;;;;;;;;;;;;;;;;;;4899731;29;8524;-84
2022/06/11 07:04:59;;;;;;;;;;;;;;;;;;4900615;29;7324;-84
2022/06/11 07:07:25;;;;;;;;;;;;;;;;;;4899983;29;7248;-84
2022/06/11 07:09:55;;;;;;;;;;;;;;;;;;4899474;29;7353;-84
2022/06/11 07:12:21;;;;;;;;;;;;;;;;;;4899975;29;9494;-84
2022/06/11 07:14:47;;;;;;;;;;;;;;;;;;4899844;29;8570;-84
2022/06/11 07:17:14;;;;;;;;;;;;;;;;;;4899411;29;7206;-84
2022/06/11 07:19:43;;;;;;;;;;;;;;;;;;4899483;29;9496;-85
2022/06/11 07:22:17;;;;;;;;;;;;;;;;;;4899350;29;8599;-85
2022/06/11 07:24:43;;;;;;;;;;;;;;;;;;4899533;29;8741;-85
2022/06/11 07:27:13;;;;;;;;;;;;;;;;;;4899176;29;7726;-85
2022/06/11 07:29:45;;;;;;;;;;;;;;;;;;4899226;29;8529;-85
2022/06/11 07:32:14;;;;;;;;;;;;;;;;;;4899155;29;7252;-85
2022/06/11 07:34:41;;;;;;;;;;;;;;;;;;4897010;29;7276;-85
2022/06/11 07:37:06;;;;;;;;;;;;;;;;;;4914013;29;8563;-84
2022/06/11 07:39:32;;;;;;;;;;;;;;;;;;4899338;29;8801;-85
2022/06/11 07:41:58;;;;;;;;;;;;;;;;;;4914487;29;8518;-84
2022/06/11 07:44:26;;;;;;;;;;;;;;;;;;4914627;29;7268;-85
2022/06/11 07:46:52;;;;;;;;;;;;;;;;;;4914794;29;8835;-85
2022/06/11 07:49:17;;;;;;;;;;;;;;;;;;4914449;29;7280;-85
2022/06/11 07:51:43;;;;;;;;;;;;;;;;;;4914571;29;8421;-85
2022/06/11 07:54:09;;;;;;;;;;;;;;;;;;4914210;29;8897;-84
2022/06/11 07:56:37;;;;;;;;;;;;;;;;;;4898729;29;8874;-85
2022/06/11 07:59:05;;;;;;;;;;;;;;;;;;4899579;29;8682;-84
2022/06/11 08:01:31;;;;;;;;;;;;;;;;;;4898782;29;8578;-84
2022/06/11 08:03:56;;;;;;;;;;;;;;;;;;4898585;29;8843;-85
2022/06/11 08:09:25;;;;;;;;;;;;;;;;;;5052135;28;7021;-60
2022/06/11 08:11:51;;;;;;;;;;;;;;;;;;5032317;28;7071;-58
2022/06/11 08:14:29;;;;;;;;;;;;;;;;;;4999303;28;11960;-62
2022/06/11 08:16:55;;;;;;;;;;;;;;;;;;4971029;28;17675;-62
2022/06/11 08:19:21;;;;;;;;;;;;;;;;;;5013312;28;6912;-63
2022/06/11 08:21:58;;;;;;;;;;;;;;;;;;5012301;28;7017;-61
2022/06/11 08:24:24;;;;;;;;;;;;;;;;;;5012317;28;6956;-61
2022/06/11 08:26:50;;;;;;;;;;;;;;;;;;5012510;28;7401;-61
2022/06/11 08:29:24;;;;;;;;;;;;;;;;;;5012180;28;7362;-59
2022/06/11 08:31:50;;;;;;;;;;;;;;;;;;5012200;28;7165;-59
2022/06/11 08:34:16;;;;;;;;;;;;;;;;;;5012143;28;7204;-60
2022/06/11 08:36:42;;;;;;;;;;;;;;;;;;5012039;28;7185;-60
2022/06/11 08:39:07;;;;;;;;;;;;;;;;;;5011754;28;6939;-61
2022/06/11 08:41:50;;;;;;;;;;;;;;;;;;5012612;28;6937;-61
2022/06/11 08:44:35;;;;;;;;;;;;;;;;;;5011903;28;7115;-74
2022/06/11 08:47:04;;;;;;;;;;;;;;;;;;5011702;28;7366;-61
2022/06/11 08:49:31;;;;;;;;;;;;;;;;;;5011702;28;7201;-60
2022/06/11 08:54:54;;;;;;;;;;;;;;;;;;5013811;28;6932;-60
2022/06/11 08:57:42;;;;;;;;;;;;;;;;;;5011586;28;7446;-60
2022/06/11 09:00:50;;;;;;;;;;;;;;;;;;5012122;28;7050;-59
2022/06/11 09:03:42;;;;;;;;;;;;;;;;;;5011194;28;7418;-59
2022/06/11 09:06:10;;;;;;;;;;;;;;;;;;5011699;28;7426;-58
2022/06/11 09:08:48;;;;;;;;;;;;;;;;;;5008237;28;7222;-59
2022/06/11 09:14:23;;;;;;;;;;;;;;;;;;5012743;28;6810;-58
2022/06/11 09:17:07;;;;;;;;;;;;;;;;;;5011606;28;7467;-59
2022/06/11 09:19:55;;;;;;;;;;;;;;;;;;5004170;28;7181;-58
2022/06/11 09:22:40;;;;;;;;;;;;;;;;;;4998627;28;7192;-58
2022/06/11 09:25:24;;;;;;;;;;;;;;;;;;5000304;28;6956;-58
2022/06/11 09:28:04;;;;;;;;;;;;;;;;;;4998348;28;6989;-58
2022/06/11 09:30:40;;;;;;;;;;;;;;;;;;4998159;28;7056;-58
2022/06/11 09:33:11;;;;;;;;;;;;;;;;;;4997442;28;7215;-58
2022/06/11 09:36:13;;;;;;;;;;;;;;;;;;4997963;28;7021;-58
2022/06/11 09:38:41;;;;;;;;;;;;;;;;;;4996914;28;7404;-59
2022/06/11 09:41:22;;;;;;;;;;;;;;;;;;4998391;28;7226;-58
2022/06/11 09:44:06;;;;;;;;;;;;;;;;;;4997628;28;7181;-58
2022/06/11 09:46:32;;;;;;;;;;;;;;;;;;4997703;28;7185;-58
2022/06/11 09:48:58;;;;;;;;;;;;;;;;;;4998131;28;7120;-58
2022/06/11 09:51:46;;;;;;;;;;;;;;;;;;4998352;28;7058;-58
2022/06/11 09:54:23;;;;;;;;;;;;;;;;;;4997137;28;7177;-58
2022/06/11 09:57:01;;;;;;;;;;;;;;;;;;4997742;28;7564;-59
2022/06/11 09:59:43;;;;;;;;;;;;;;;;;;4997386;28;7253;-59
2022/06/11 10:05:19;;;;;;;;;;;;;;;;;;4997427;28;6706;-59
2022/06/11 10:08:06;;;;;;;;;;;;;;;;;;4997523;28;7261;-62
2022/06/11 10:10:38;;;;;;;;;;;;;;;;;;4997690;28;7201;-61
2022/06/11 10:13:22;;;;;;;;;;;;;;;;;;4994068;28;6983;-61
2022/06/11 10:15:49;;;;;;;;;;;;;;;;;;4996625;28;7100;-60
2022/06/11 10:18:18;;;;;;;;;;;;;;;;;;4996711;28;7391;-60
2022/06/11 10:20:50;;;;;;;;;;;;;;;;;;4995178;28;7168;-60
2022/06/11 10:23:32;;;;;;;;;;;;;;;;;;4996467;28;6975;-61
2022/06/11 10:26:10;;;;;;;;;;;;;;;;;;4996822;28;7243;-60
2022/06/11 10:28:44;;;;;;;;;;;;;;;;;;4996411;28;7096;-61
2022/06/11 10:31:18;;;;;;;;;;;;;;;;;;4995818;28;7146;-60
2022/06/11 10:33:46;;;;;;;;;;;;;;;;;;4996707;28;7139;-60
2022/06/11 10:36:30;;;;;;;;;;;;;;;;;;4996349;28;7100;-60
2022/06/11 10:38:58;;;;;;;;;;;;;;;;;;4996616;28;7204;-60
2022/06/11 10:41:42;;;;;;;;;;;;;;;;;;4995612;28;7314;-60
2022/06/11 10:44:09;;;;;;;;;;;;;;;;;;4996645;28;6976;-60
2022/06/11 10:46:52;;;;;;;;;;;;;;;;;;4997008;28;7292;-61
2022/06/11 10:49:22;;;;;;;;;;;;;;;;;;4996616;28;7014;-61
2022/06/11 10:51:58;;;;;;;;;;;;;;;;;;4996495;28;6990;-60
2022/06/11 10:54:30;;;;;;;;;;;;;;;;;;4996561;28;7220;-60
2022/06/11 10:56:56;;;;;;;;;;;;;;;;;;4996747;28;7062;-60
2022/06/11 11:02:33;;;;;;;;;;;;;;;;;;4996590;28;7201;-60
2022/06/11 11:05:04;;;;;;;;;;;;;;;;;;4996116;28;7492;-60
2022/06/11 11:10:36;;;;;;;;;;;;;;;;;;4996099;28;6731;-59
2022/06/11 11:13:28;;;;;;;;;;;;;;;;;;4996539;28;7213;-56
2022/06/11 11:16:00;;;;;;;;;;;;;;;;;;5015682;28;7481;-58
2022/06/11 11:18:52;;;;;;;;;;;;;;;;;;5015804;28;7205;-58
2022/06/11 11:21:22;;;;;;;;;;;;;;;;;;5015342;28;6839;-58
2022/06/11 11:23:50;;;;;;;;;;;;;;;;;;5016223;28;7193;-58
2022/06/11 11:26:28;;;;;;;;;;;;;;;;;;5015395;28;7187;-58
2022/06/11 11:28:57;;;;;;;;;;;;;;;;;;5014751;28;7230;-58
2022/06/11 11:31:26;;;;;;;;;;;;;;;;;;5015270;28;7085;-58
2022/06/11 11:34:01;;;;;;;;;;;;;;;;;;5015073;28;7046;-62
2022/06/11 11:36:29;;;;;;;;;;;;;;;;;;5015468;28;7193;-63
2022/06/11 11:39:00;;;;;;;;;;;;;;;;;;5015179;28;7193;-63
2022/06/11 11:41:47;;;;;;;;;;;;;;;;;;5015628;28;7414;-63
2022/06/11 11:44:17;;;;;;;;;;;;;;;;;;5015269;28;7226;-63
2022/06/11 11:46:48;;;;;;;;;;;;;;;;;;5015145;28;7383;-63
2022/06/11 11:49:27;;;;;;;;;;;;;;;;;;5014955;28;7146;-63
2022/06/11 11:54:51;;;;;;;;;;;;;;;;;;5015569;28;6822;-63
2022/06/11 11:57:16;;;;;;;;;;;;;;;;;;5016262;28;7317;-63
2022/06/11 12:02:59;;;;;;;;;;;;;;;;;;5015463;28;6965;-63
2022/06/11 12:05:30;;;;;;;;;;;;;;;;;;5014638;28;7192;-63
2022/06/11 12:07:59;;;;;;;;;;;;;;;;;;5013800;28;7016;-63
2022/06/11 12:10:25;;;;;;;;;;;;;;;;;;5015004;28;7074;-63
2022/06/11 12:12:52;;;;;;;;;;;;;;;;;;5014685;28;7177;-63
2022/06/11 12:18:37;;;;;;;;;;;;;;;;;;5014545;28;6825;-63
2022/06/11 12:21:06;;;;;;;;;;;;;;;;;;5015407;28;7111;-63
2022/06/11 12:23:34;;;;;;;;;;;;;;;;;;5015283;28;7067;-63
2022/06/11 12:26:03;;;;;;;;;;;;;;;;;;5014696;28;7107;-63
2022/06/11 12:28:33;;;;;;;;;;;;;;;;;;5014927;28;7178;-63
2022/06/11 12:30:59;;;;;;;;;;;;;;;;;;5015513;28;7196;-63
2022/06/11 12:36:33;;;;;;;;;;;;;;;;;;5015366;28;6703;-63
2022/06/11 12:39:18;;;;;;;;;;;;;;;;;;5014493;28;7166;-63
2022/06/11 12:42:13;;;;;;;;;;;;;;;;;;5015045;28;7059;-63
2022/06/11 12:44:39;;;;;;;;;;;;;;;;;;5014491;28;7943;-63
2022/06/11 12:47:06;;;;;;;;;;;;;;;;;;5014664;28;7103;-63
2022/06/11 12:49:50;;;;;;;;;;;;;;;;;;5014417;28;7067;-63
2022/06/11 12:52:39;;;;;;;;;;;;;;;;;;5015683;28;7120;-63
2022/06/11 12:55:21;;;;;;;;;;;;;;;;;;5017895;28;7300;-63
2022/06/11 12:58:05;;;;;;;;;;;;;;;;;;5019278;28;7261;-63
2022/06/11 13:00:50;;;;;;;;;;;;;;;;;;5019741;28;7042;-63
2022/06/11 13:03:22;;;;;;;;;;;;;;;;;;5020224;28;7139;-63
2022/06/11 13:06:14;;;;;;;;;;;;;;;;;;5018265;28;6887;-63
2022/06/11 13:09:01;;;;;;;;;;;;;;;;;;5019178;28;7227;-63
2022/06/11 13:11:54;;;;;;;;;;;;;;;;;;5018377;28;7522;-63
2022/06/11 13:14:22;;;;;;;;;;;;;;;;;;5018231;28;7034;-63
2022/06/11 13:16:55;;;;;;;;;;;;;;;;;;5017848;28;7182;-63
2022/06/11 13:19:23;;;;;;;;;;;;;;;;;;5017720;28;7199;-63
2022/06/11 13:21:57;;;;;;;;;;;;;;;;;;5017805;28;7571;-63
2022/06/11 13:24:28;;;;;;;;;;;;;;;;;;5017817;28;7393;-63
2022/06/11 13:27:21;;;;;;;;;;;;;;;;;;5017998;28;6977;-63
2022/06/11 13:30:12;;;;;;;;;;;;;;;;;;5017679;28;7207;-64
2022/06/11 13:33:19;;;;;;;;;;;;;;;;;;5017559;28;7125;-63
2022/06/11 13:35:44;;;;;;;;;;;;;;;;;;5019582;28;7084;-63
2022/06/11 13:38:21;;;;;;;;;;;;;;;;;;5017365;28;7009;-63
2022/06/11 13:40:59;;;;;;;;;;;;;;;;;;5017293;28;7087;-63
2022/06/11 13:43:24;;;;;;;;;;;;;;;;;;5017460;28;6996;-66
2022/06/11 13:45:56;;;;;;;;;;;;;;;;;;5017097;28;6984;-64
2022/06/11 13:49:00;;;;;;;;;;;;;;;;;;5052381;28;6632;-63
2022/06/11 13:51:47;;;;;;;;;;;;;;;;;;5032807;28;7262;-64
2022/06/11 14:15:14;;;;;;;;;;;;;;;;;;5010367;28;6906;-64
2022/06/11 14:18:03;;;;;;;;;;;;;;;;;;5011083;28;7152;-62
2022/06/11 14:20:55;;;;;;;;;;;;;;;;;;5009827;28;7010;-62
2022/06/11 14:23:21;;;;;;;;;;;;;;;;;;5009962;28;7190;-62
2022/06/11 14:25:53;;;;;;;;;;;;;;;;;;5009845;28;7028;-63
2022/06/11 14:28:19;;;;;;;;;;;;;;;;;;5010380;28;7240;-63
2022/06/11 14:30:48;;;;;;;;;;;;;;;;;;5010033;28;6861;-62
2022/06/11 14:33:14;;;;;;;;;;;;;;;;;;5010367;28;7003;-65
2022/06/11 14:36:16;;;;;;;;;;;;;;;;;;5010402;28;7247;-63
2022/06/11 14:38:53;;;;;;;;;;;;;;;;;;5009696;28;6854;-63
2022/06/11 14:41:41;;;;;;;;;;;;;;;;;;5010294;28;7012;-62
2022/06/11 14:44:06;;;;;;;;;;;;;;;;;;5008355;28;7092;-62
2022/06/11 14:46:49;;;;;;;;;;;;;;;;;;5008242;28;7227;-63
2022/06/11 14:49:42;;;;;;;;;;;;;;;;;;5018828;28;7076;-63
2022/06/11 14:52:10;;;;;;;;;;;;;;;;;;5021699;28;7535;-62
2022/06/11 14:54:45;;;;;;;;;;;;;;;;;;5031456;28;7299;-63
2022/06/11 14:57:48;;;;;;;;;;;;;;;;;;5031851;28;6977;-62
2022/06/11 15:00:33;;;;;;;;;;;;;;;;;;4956976;28;12127;-62
2022/06/11 15:03:28;;;;;;;;;;;;;;;;;;4979115;28;7191;-63
2022/06/11 15:06:12;;;;;;;;;;;;;;;;;;4979123;28;7530;-63
2022/06/11 15:08:56;;;;;;;;;;;;;;;;;;4978535;28;7449;-62
2022/06/11 15:14:52;;;;;;;;;;;;;;;;;;4978922;28;6965;-65
2022/06/11 15:17:24;;;;;;;;;;;;;;;;;;4978502;28;7689;-61
2022/06/11 15:20:05;;;;;;;;;;;;;;;;;;4978633;28;7201;-62
2022/06/11 15:22:41;;;;;;;;;;;;;;;;;;4978576;28;7173;-62
2022/06/11 15:25:23;;;;;;;;;;;;;;;;;;4978379;28;7039;-61
2022/06/11 15:27:51;;;;;;;;;;;;;;;;;;4977841;28;7130;-61
2022/06/11 15:30:21;;;;;;;;;;;;;;;;;;4978321;28;7294;-63
2022/06/11 15:32:50;;;;;;;;;;;;;;;;;;4978270;28;7024;-67
2022/06/11 15:35:31;;;;;;;;;;;;;;;;;;4939353;28;12377;-62
2022/06/11 15:38:04;;;;;;;;;;;;;;;;;;4977789;28;7215;-66
2022/06/11 15:40:39;;;;;;;;;;;;;;;;;;4977864;28;6847;-64
2022/06/11 15:43:25;;;;;;;;;;;;;;;;;;4925123;28;12132;-62
2022/06/11 15:45:53;;;;;;;;;;;;;;;;;;4952879;28;12392;-63
2022/06/11 15:48:30;;;;;;;;;;;;;;;;;;4947746;28;7038;-59
2022/06/11 15:50:58;;;;;;;;;;;;;;;;;;5003588;28;7152;-59
2022/06/11 15:53:26;;;;;;;;;;;;;;;;;;4977030;28;7445;-59
2022/06/11 15:55:51;;;;;;;;;;;;;;;;;;5006156;28;7195;-60
2022/06/11 15:58:30;;;;;;;;;;;;;;;;;;4997354;28;7226;-57
2022/06/11 16:01:03;;;;;;;;;;;;;;;;;;4997106;28;7297;-59
2022/06/11 16:06:07;;;;;;;;;;;;;;;;;;4997383;28;7037;-58
2022/06/11 16:08:39;;;;;;;;;;;;;;;;;;4996696;28;7425;-57
2022/06/11 16:11:14;;;;;;;;;;;;;;;;;;4996056;28;7337;-57
2022/06/11 16:13:42;;;;;;;;;;;;;;;;;;4997530;28;7380;-57
2022/06/11 16:19:09;;;;;;;;;;;;;;;;;;4998029;28;7172;-57
2022/06/11 16:21:38;;;;;;;;;;;;;;;;;;4997269;28;7076;-57
2022/06/11 16:24:07;;;;;;;;;;;;;;;;;;4997016;28;7066;-57
2022/06/11 16:29:42;;;;;;;;;;;;;;;;;;4996354;28;6763;-57
2022/06/11 16:32:08;;;;;;;;;;;;;;;;;;4996598;28;7202;-57
2022/06/11 16:34:35;;;;;;;;;;;;;;;;;;4996629;28;6887;-57
2022/06/11 16:37:16;;;;;;;;;;;;;;;;;;4997136;28;7182;-56
2022/06/11 16:45:55;;;;;;;;;;;;;;;;;;4996203;28;6705;-57
2022/06/11 16:48:40;;;;;;;;;;;;;;;;;;4995802;28;7229;-57
2022/06/11 16:56:51;;;;;;;;;;;;;;;;;;4996857;28;7096;-56
2022/06/11 16:59:20;;;;;;;;;;;;;;;;;;4996445;28;6999;-58
2022/06/11 17:03:05;;;;;;;;;;;;;;;;;;4996429;28;7393;-57
2022/06/11 17:05:00;;;;;;;;;;;;;;;;;;4995642;28;7067;-57
2022/06/11 17:10:33;;;;;;;;;;;;;;;;;;4997012;28;7532;-57
2022/06/11 17:13:13;;;;;;;;;;;;;;;;;;4995929;28;7227;-58
2022/06/11 17:15:40;;;;;;;;;;;;;;;;;;4996238;28;7151;-57
2022/06/11 17:18:24;;;;;;;;;;;;;;;;;;4995701;28;7501;-57
2022/06/11 17:24:00;;;;;;;;;;;;;;;;;;4995958;28;6825;-56
2022/06/11 17:26:29;;;;;;;;;;;;;;;;;;4995698;28;7242;-56
2022/06/11 17:29:11;;;;;;;;;;;;;;;;;;4996181;28;7147;-55
2022/06/11 17:31:38;;;;;;;;;;;;;;;;;;4996136;28;7614;-61
2022/06/11 17:34:08;;;;;;;;;;;;;;;;;;4996111;28;7171;-61
2022/06/11 17:36:37;;;;;;;;;;;;;;;;;;4995991;28;7061;-61
2022/06/11 17:39:11;;;;;;;;;;;;;;;;;;4995667;28;7001;-61
2022/06/11 17:42:07;;;;;;;;;;;;;;;;;;4995423;28;7151;-61
2022/06/11 17:44:35;;;;;;;;;;;;;;;;;;4995541;28;7068;-61
2022/06/11 17:47:26;;;;;;;;;;;;;;;;;;4990815;28;7426;-61
2022/06/11 17:49:52;;;;;;;;;;;;;;;;;;4996325;28;7061;-61
2022/06/11 17:55:24;;;;;;;;;;;;;;;;;;4995091;28;7010;-61
2022/06/11 17:57:52;;;;;;;;;;;;;;;;;;4995334;28;7394;-61
2022/06/11 18:00:34;;;;;;;;;;;;;;;;;;4995319;28;7412;-61
2022/06/11 18:03:11;;;;;;;;;;;;;;;;;;4995376;28;8041;-61
2022/06/11 18:05:50;;;;;;;;;;;;;;;;;;4995113;28;7352;-61
2022/06/11 18:08:17;;;;;;;;;;;;;;;;;;4995051;28;6863;-62
2022/06/11 18:10:44;;;;;;;;;;;;;;;;;;4995160;28;7244;-61
2022/06/11 18:13:11;;;;;;;;;;;;;;;;;;4995080;28;7137;-61
2022/06/11 18:16:06;;;;;;;;;;;;;;;;;;4995776;28;7297;-62
2022/06/11 18:18:37;;;;;;;;;;;;;;;;;;4994938;28;7162;-62
2022/06/11 18:26:47;;;;;;;;;;;;;;;;;;4995402;28;6822;-61
2022/06/11 18:29:13;;;;;;;;;;;;;;;;;;4995139;28;7175;-61
2022/06/11 18:31:40;;;;;;;;;;;;;;;;;;4993652;28;7561;-61
2022/06/11 18:34:13;;;;;;;;;;;;;;;;;;4994816;28;8711;-61
2022/06/11 18:36:39;;;;;;;;;;;;;;;;;;4998674;28;6966;-61
2022/06/11 18:39:05;;;;;;;;;;;;;;;;;;4998230;28;7192;-61
2022/06/11 18:41:32;;;;;;;;;;;;;;;;;;4998892;28;7223;-61
2022/06/11 18:43:57;;;;;;;;;;;;;;;;;;4999159;28;6967;-61
2022/06/11 18:46:48;;;;;;;;;;;;;;;;;;4998359;28;6920;-61
2022/06/11 18:49:15;;;;;;;;;;;;;;;;;;4997938;28;6860;-61
2022/06/11 18:51:41;;;;;;;;;;;;;;;;;;4998434;28;7091;-61
2022/06/11 18:54:12;;;;;;;;;;;;;;;;;;4998509;28;7182;-61
2022/06/11 18:56:37;;;;;;;;;;;;;;;;;;4999085;28;7481;-61
2022/06/11 18:59:22;;;;;;;;;;;;;;;;;;4999280;28;7278;-61
2022/06/11 19:01:47;;;;;;;;;;;;;;;;;;4998321;28;7221;-61
2022/06/11 19:04:13;;;;;;;;;;;;;;;;;;4998863;28;7423;-61
2022/06/11 19:07:07;;;;;;;;;;;;;;;;;;4998093;28;7295;-61
2022/06/11 19:09:34;;;;;;;;;;;;;;;;;;4998020;28;7109;-61